createdAt,value
2023-01-30T00:02:45.115Z,0.88
2023-01-30T00:07:47.912Z,0.79
2023-01-30T00:12:50.915Z,0.79
2023-01-30T00:17:52.939Z,0.79
2023-01-30T00:23:00.766Z,0.71
2023-01-30T00:28:03.528Z,0.70
2023-01-30T00:33:06.993Z,0.69
2023-01-30T00:38:10.497Z,0.62
2023-01-30T00:43:33.749Z,0.53
2023-01-30T00:48:35.858Z,0.38
2023-01-30T00:53:37.917Z,0.41
2023-01-30T00:58:39.908Z,0.43
2023-01-30T01:03:41.948Z,0.49
2023-01-30T01:08:44.161Z,0.45
2023-01-30T01:13:46.402Z,0.48
2023-01-30T01:18:48.815Z,0.46
2023-01-30T01:23:52.975Z,0.41
2023-01-30T01:28:56.515Z,0.29
2023-01-30T01:33:58.596Z,0.27
2023-01-30T01:39:01.664Z,0.35
2023-01-30T01:44:08.799Z,0.37
2023-01-30T01:49:37.172Z,0.32
2023-01-30T01:54:44.321Z,0.34
2023-01-30T01:59:57.967Z,0.34
2023-01-30T02:05:03.530Z,0.33
2023-01-30T02:10:10.728Z,0.24
2023-01-30T02:15:12.987Z,0.26
2023-01-30T02:20:19.675Z,0.24
2023-01-30T02:25:21.730Z,0.24
2023-01-30T02:30:43.224Z,0.22
2023-01-30T02:36:06.914Z,0.20
2023-01-30T02:41:28.456Z,0.14
2023-01-30T02:46:37.480Z,0.11
2023-01-30T02:51:41.118Z,0.07
2023-01-30T02:56:52.773Z,-0.01
2023-01-30T03:02:14.314Z,-0.05
2023-01-30T03:07:16.142Z,-0.03
2023-01-30T03:12:26.857Z,-0.09
2023-01-30T03:17:30.035Z,-0.17
2023-01-30T03:22:32.267Z,-0.17
2023-01-30T03:27:35.402Z,-0.16
2023-01-30T03:32:37.627Z,-0.24
2023-01-30T03:37:39.819Z,-0.30
2023-01-30T03:42:42.863Z,-0.25
2023-01-30T03:47:45.733Z,-0.31
2023-01-30T03:52:47.804Z,-0.34
2023-01-30T03:57:57.483Z,-0.42
2023-01-30T04:03:02.694Z,-0.45
2023-01-30T04:08:05.295Z,-0.46
2023-01-30T04:13:07.525Z,-0.51
2023-01-30T04:18:09.734Z,-0.51
2023-01-30T04:23:24.996Z,-0.60
2023-01-30T04:28:27.080Z,-0.63
2023-01-30T04:33:29.761Z,-0.75
2023-01-30T04:38:32.977Z,-0.81
2023-01-30T04:43:35.971Z,-0.79
2023-01-30T04:48:55.987Z,-0.81
2023-01-30T04:53:58.115Z,-0.78
2023-01-30T04:59:00.439Z,-0.83
2023-01-30T05:04:08.127Z,-0.77
2023-01-30T05:09:10.297Z,-0.75
2023-01-30T05:14:12.304Z,-0.74
2023-01-30T05:19:14.433Z,-0.69
2023-01-30T05:24:16.667Z,-0.68
2023-01-30T05:29:19.071Z,-0.68
2023-01-30T05:34:21.133Z,-0.69
2023-01-30T05:39:23.044Z,-0.73
2023-01-30T05:44:25.136Z,-0.65
2023-01-30T05:49:27.129Z,-0.65
2023-01-30T05:54:29.358Z,-0.63
2023-01-30T05:59:31.829Z,-0.61
2023-01-30T06:04:34.484Z,-0.62
2023-01-30T06:09:37.632Z,-0.60
2023-01-30T06:14:40.741Z,-0.72
2023-01-30T06:19:42.870Z,-0.68
2023-01-30T06:24:46.127Z,-0.74
2023-01-30T06:29:49.441Z,-0.80
2023-01-30T06:34:53.168Z,-0.91
2023-01-30T06:39:56.416Z,-0.95
2023-01-30T06:45:00.501Z,-1.01
2023-01-30T06:50:04.833Z,-1.02
2023-01-30T06:55:08.614Z,-1.03
2023-01-30T07:00:15.089Z,-1.03
2023-01-30T07:05:18.661Z,-1.02
2023-01-30T07:10:22.585Z,-1.02
2023-01-30T07:15:25.111Z,-1.06
2023-01-30T07:20:28.002Z,-1.04
2023-01-30T07:25:31.542Z,-1.04
2023-01-30T07:30:36.840Z,-1.00
2023-01-30T07:35:39.557Z,-0.98
2023-01-30T07:40:41.664Z,-0.93
2023-01-30T07:45:48.463Z,-0.92
2023-01-30T07:50:50.570Z,-0.91
2023-01-30T08:02:14.824Z,-0.84
2023-01-30T08:07:22.217Z,-0.86
2023-01-30T08:12:27.962Z,-0.86
2023-01-30T08:17:30.227Z,-0.91
2023-01-30T08:22:32.508Z,-0.79
2023-01-30T08:27:35.072Z,-0.63
2023-01-30T08:32:37.205Z,-0.58
2023-01-30T08:37:40.813Z,-0.49
2023-01-30T08:42:45.871Z,-0.48
2023-01-30T08:47:50.700Z,-0.34
2023-01-30T08:52:58.790Z,-0.31
2023-01-30T08:58:00.918Z,-0.24
2023-01-30T09:03:03.736Z,-0.13
2023-01-30T09:08:06.077Z,-0.01
2023-01-30T09:13:09.975Z,0.12
2023-01-30T09:18:12.488Z,0.36
2023-01-30T09:23:14.896Z,0.51
2023-01-30T09:28:16.954Z,0.93
2023-01-30T09:33:20.767Z,1.53
2023-01-30T09:38:22.912Z,3.30
2023-01-30T09:43:49.792Z,4.80
2023-01-30T09:49:00.235Z,5.71
2023-01-30T09:54:22.445Z,5.93
2023-01-30T09:59:31.182Z,6.05
2023-01-30T10:04:41.942Z,7.19
2023-01-30T10:10:04.469Z,7.17
2023-01-30T10:15:15.347Z,7.73
2023-01-30T10:20:39.111Z,7.77
2023-01-30T10:25:43.334Z,8.04
2023-01-30T10:30:47.308Z,8.49
2023-01-30T10:36:18.770Z,9.25
2023-01-30T10:41:20.901Z,9.82
2023-01-30T10:46:52.412Z,9.86
2023-01-30T10:52:07.514Z,10.01
2023-01-30T10:57:37.321Z,9.84
2023-01-30T11:03:11.952Z,10.44
2023-01-30T11:08:26.291Z,10.06
2023-01-30T11:13:33.409Z,10.47
2023-01-30T11:24:33.648Z,8.24
2023-01-30T11:29:39.280Z,7.90
2023-01-30T11:34:42.801Z,7.59
2023-01-30T11:39:54.532Z,7.36
2023-01-30T11:45:10.807Z,7.27
2023-01-30T11:50:21.616Z,7.01
2023-01-30T11:55:27.774Z,6.77
2023-01-30T12:00:41.851Z,6.87
2023-01-30T12:05:46.038Z,6.73
2023-01-30T12:10:53.058Z,6.84
2023-01-30T12:16:21.794Z,6.71
2023-01-30T12:21:47.392Z,6.82
2023-01-30T12:27:08.750Z,6.68
2023-01-30T12:32:18.041Z,6.51
2023-01-30T12:38:01.461Z,6.57
2023-01-30T12:43:32.616Z,6.74
2023-01-30T12:49:12.230Z,6.68
2023-01-30T12:54:46.840Z,6.92
2023-01-30T13:00:07.668Z,6.94
2023-01-30T13:05:21.690Z,7.02
2023-01-30T13:10:52.570Z,7.00
2023-01-30T13:16:26.840Z,7.01
2023-01-30T13:21:40.680Z,7.14
2023-01-30T13:26:44.424Z,7.18
2023-01-30T13:31:56.601Z,7.43
2023-01-30T13:37:04.372Z,7.33
2023-01-30T13:42:13.201Z,7.54
2023-01-30T13:47:20.103Z,7.50
2023-01-30T13:53:21.041Z,7.56
2023-01-30T13:58:50.787Z,7.60
2023-01-30T14:03:53.123Z,7.70
2023-01-30T14:08:59.454Z,7.64
2023-01-30T14:14:20.886Z,7.68
2023-01-30T14:19:39.090Z,7.69
2023-01-30T14:24:41.822Z,7.84
2023-01-30T14:29:46.107Z,7.87
2023-01-30T14:35:10.980Z,7.89
2023-01-30T14:40:22.541Z,7.92
2023-01-30T14:45:52.638Z,7.92
2023-01-30T14:51:28.868Z,7.92
2023-01-30T14:56:54.648Z,8.00
2023-01-30T15:02:29.566Z,8.03
2023-01-30T15:07:45.108Z,8.00
2023-01-30T15:13:05.790Z,8.03
2023-01-30T15:18:29.185Z,7.89
2023-01-30T15:24:00.804Z,8.00
2023-01-30T15:29:09.203Z,7.93
2023-01-30T15:34:20.527Z,7.91
2023-01-30T15:39:24.975Z,7.90
2023-01-30T15:44:30.066Z,7.85
2023-01-30T15:49:43.063Z,7.85
2023-01-30T15:54:51.522Z,7.74
2023-01-30T15:59:54.739Z,7.70
2023-01-30T16:05:15.307Z,7.58
2023-01-30T16:10:23.823Z,7.54
2023-01-30T16:15:33.562Z,7.52
2023-01-30T16:21:01.509Z,7.42
2023-01-30T16:26:08.135Z,7.33
2023-01-30T16:31:11.192Z,7.43
2023-01-30T16:36:22.236Z,7.33
2023-01-30T16:42:00.264Z,7.37
2023-01-30T16:47:28.367Z,7.20
2023-01-30T16:52:41.414Z,7.13
2023-01-30T16:58:13.471Z,7.02
2023-01-30T17:03:26.948Z,6.89
2023-01-30T17:08:49.695Z,6.82
2023-01-30T17:14:10.684Z,6.68
2023-01-30T17:19:13.115Z,6.52
2023-01-30T17:24:20.365Z,6.39
2023-01-30T17:29:41.399Z,6.26
2023-01-30T17:34:45.493Z,6.18
2023-01-30T17:39:48.202Z,6.03
2023-01-30T17:44:50.246Z,5.87
2023-01-30T17:49:52.350Z,5.79
2023-01-30T17:54:54.415Z,5.72
2023-01-30T17:59:56.670Z,5.54
2023-01-30T18:04:59.078Z,5.39
2023-01-30T18:10:01.253Z,5.39
2023-01-30T18:15:04.347Z,5.33
2023-01-30T18:20:06.969Z,5.13
2023-01-30T18:25:09.117Z,5.10
2023-01-30T18:30:15.117Z,5.10
2023-01-30T18:35:18.811Z,5.02
2023-01-30T18:40:22.372Z,4.86
2023-01-30T18:45:25.322Z,4.89
2023-01-30T18:50:27.560Z,4.69
2023-01-30T18:55:29.731Z,4.54
2023-01-30T19:00:32.046Z,4.60
2023-01-30T19:05:36.767Z,4.58
2023-01-30T19:10:39.236Z,4.54
2023-01-30T19:15:41.365Z,4.52
2023-01-30T19:20:43.575Z,4.32
2023-01-30T19:25:53.438Z,4.22
2023-01-30T19:30:56.417Z,4.24
2023-01-30T19:36:11.168Z,4.25
2023-01-30T19:41:15.714Z,4.22
2023-01-30T19:46:18.200Z,4.14
2023-01-30T19:51:22.976Z,4.12
2023-01-30T19:56:26.227Z,3.95
2023-01-30T20:01:31.448Z,3.90
2023-01-30T20:06:37.814Z,3.81
2023-01-30T20:11:41.957Z,3.77
2023-01-30T20:16:44.238Z,3.65
2023-01-30T20:21:46.581Z,3.62
2023-01-30T20:26:49.055Z,3.60
2023-01-30T20:31:54.408Z,3.19
2023-01-30T20:36:56.752Z,3.30
2023-01-30T20:41:58.921Z,3.29
2023-01-30T20:47:01.312Z,3.25
2023-01-30T20:52:04.127Z,3.13
2023-01-30T20:57:08.102Z,2.99
2023-01-30T21:02:10.480Z,2.97
2023-01-30T21:07:12.581Z,2.89
2023-01-30T21:12:14.725Z,2.73
2023-01-30T21:17:17.100Z,2.73
2023-01-30T21:22:19.346Z,2.65
2023-01-30T21:27:21.400Z,2.56
2023-01-30T21:32:23.595Z,2.55
2023-01-30T21:37:44.521Z,2.48
2023-01-30T21:43:05.393Z,2.39
2023-01-30T21:48:07.829Z,2.36
2023-01-30T21:53:10.088Z,2.22
2023-01-30T21:58:12.226Z,2.03
2023-01-30T22:03:15.015Z,2.00
2023-01-30T22:08:17.224Z,1.83
2023-01-30T22:13:19.296Z,1.77
2023-01-30T22:18:21.574Z,1.63
2023-01-30T22:23:23.620Z,1.58
2023-01-30T22:28:27.636Z,1.52
2023-01-30T22:33:30.460Z,1.45
2023-01-30T22:38:33.043Z,1.41
2023-01-30T22:43:36.287Z,1.30
2023-01-30T22:48:39.423Z,1.27
2023-01-30T22:53:44.032Z,1.26
2023-01-30T22:58:47.238Z,1.24
2023-01-30T23:03:54.354Z,1.23
2023-01-30T23:08:56.446Z,1.22
2023-01-30T23:14:09.701Z,1.08
2023-01-30T23:19:13.375Z,1.16
2023-01-30T23:24:21.014Z,0.90
2023-01-30T23:29:23.012Z,1.09
2023-01-30T23:34:26.519Z,1.10
2023-01-30T23:39:28.989Z,1.09
2023-01-30T23:44:30.995Z,1.06
2023-01-30T23:49:33.169Z,0.93
2023-01-30T23:54:35.368Z,0.93
2023-01-30T23:59:37.443Z,0.77
